createdAt,value
2018-10-11T00:01:42.900Z,17.30
2018-10-11T00:04:11.293Z,17.10
2018-10-11T00:06:39.738Z,17.50
2018-10-11T00:09:09.264Z,18.03
2018-10-11T00:11:37.714Z,18.60
2018-10-11T00:14:06.279Z,16.13
2018-10-11T00:16:34.668Z,17.37
2018-10-11T00:19:03.067Z,17.57
2018-10-11T00:21:31.502Z,20.00
2018-10-11T00:23:59.928Z,18.70
2018-10-11T00:26:28.349Z,18.13
2018-10-11T00:28:56.735Z,17.50
2018-10-11T00:31:25.122Z,18.63
2018-10-11T00:33:53.627Z,16.83
2018-10-11T00:36:22.028Z,17.43
2018-10-11T00:38:50.446Z,16.87
2018-10-11T00:41:18.851Z,17.47
2018-10-11T00:43:47.278Z,17.53
2018-10-11T00:46:15.724Z,18.80
2018-10-11T00:48:44.308Z,16.90
2018-10-11T00:51:12.746Z,15.93
2018-10-11T00:53:41.219Z,18.00
2018-10-11T00:56:09.649Z,17.90
2018-10-11T00:58:38.167Z,16.33
2018-10-11T01:01:06.581Z,16.20
2018-10-11T01:03:35.011Z,17.07
2018-10-11T01:06:03.440Z,17.13
2018-10-11T01:08:31.862Z,15.57
2018-10-11T01:11:00.228Z,17.20
2018-10-11T01:13:28.629Z,17.97
2018-10-11T01:15:57.022Z,17.57
2018-10-11T01:18:25.784Z,17.23
2018-10-11T01:20:54.506Z,15.90
2018-10-11T01:23:23.412Z,17.20
2018-10-11T01:25:51.865Z,16.03
2018-10-11T01:28:20.297Z,16.00
2018-10-11T01:30:53.941Z,16.87
2018-10-11T01:33:22.441Z,14.80
2018-10-11T01:35:50.945Z,16.10
2018-10-11T01:38:19.474Z,19.90
2018-10-11T01:40:48.018Z,16.47
2018-10-11T01:43:16.465Z,15.27
2018-10-11T01:45:45.101Z,16.50
2018-10-11T01:48:13.465Z,20.07
2018-10-11T01:50:41.879Z,19.23
2018-10-11T01:53:10.288Z,21.60
2018-10-11T01:55:38.713Z,16.70
2018-10-11T01:58:07.145Z,17.23
2018-10-11T02:00:35.616Z,20.13
2018-10-11T02:03:04.386Z,16.83
2018-10-11T02:05:32.849Z,21.37
2018-10-11T02:08:01.329Z,15.97
2018-10-11T02:10:29.920Z,18.07
2018-10-11T02:12:59.069Z,17.20
2018-10-11T02:15:28.459Z,17.73
2018-10-11T02:17:57.598Z,16.57
2018-10-11T02:20:27.179Z,18.13
2018-10-11T02:22:55.636Z,18.10
2018-10-11T02:25:24.169Z,17.33
2018-10-11T02:27:52.622Z,17.80
2018-10-11T02:30:21.024Z,16.30
2018-10-11T02:32:49.415Z,14.90
2018-10-11T02:35:18.029Z,16.53
2018-10-11T02:37:46.446Z,16.87
2018-10-11T02:40:14.850Z,17.77
2018-10-11T02:42:43.509Z,19.50
2018-10-11T02:45:11.919Z,17.47
2018-10-11T02:47:40.358Z,16.07
2018-10-11T02:50:08.985Z,16.30
2018-10-11T02:52:37.379Z,18.13
2018-10-11T02:55:06.014Z,17.07
2018-10-11T02:57:45.588Z,17.77
2018-10-11T03:00:14.048Z,18.40
2018-10-11T03:02:44.168Z,17.07
2018-10-11T03:05:14.538Z,18.07
2018-10-11T03:07:43.829Z,18.60
2018-10-11T03:10:12.309Z,16.63
2018-10-11T03:12:40.850Z,18.23
2018-10-11T03:15:09.544Z,18.40
2018-10-11T03:17:37.956Z,16.20
2018-10-11T03:20:06.611Z,17.37
2018-10-11T03:22:35.043Z,17.13
2018-10-11T03:25:03.513Z,15.90
2018-10-11T03:27:31.886Z,18.10
2018-10-11T03:30:00.293Z,16.73
2018-10-11T03:32:28.659Z,17.17
2018-10-11T03:34:57.717Z,19.90
2018-10-11T03:37:26.109Z,18.13
2018-10-11T03:39:54.509Z,19.20
2018-10-11T03:42:22.867Z,17.00
2018-10-11T03:44:51.249Z,17.13
2018-10-11T03:47:19.621Z,16.40
2018-10-11T03:49:48.057Z,18.40
2018-10-11T03:52:16.467Z,17.20
2018-10-11T03:54:44.874Z,18.83
2018-10-11T03:57:13.237Z,18.40
2018-10-11T03:59:41.713Z,19.27
2018-10-11T04:02:10.151Z,21.03
2018-10-11T04:04:38.587Z,20.07
2018-10-11T04:07:06.996Z,20.07
2018-10-11T04:09:35.394Z,18.17
2018-10-11T04:12:03.829Z,18.67
2018-10-11T04:14:32.205Z,19.37
2018-10-11T04:17:00.581Z,18.57
2018-10-11T04:19:28.979Z,17.60
2018-10-11T04:21:57.386Z,19.60
2018-10-11T04:24:25.759Z,18.67
2018-10-11T04:26:54.217Z,18.93
2018-10-11T04:29:22.593Z,17.73
2018-10-11T04:31:51.016Z,17.17
2018-10-11T04:34:19.428Z,19.37
2018-10-11T04:36:47.821Z,19.77
2018-10-11T04:39:16.220Z,20.63
2018-10-11T04:41:44.633Z,18.80
2018-10-11T04:44:13.016Z,17.67
2018-10-11T04:46:41.636Z,18.37
2018-10-11T04:51:51.253Z,17.57
2018-10-11T04:54:19.658Z,21.80
2018-10-11T04:56:48.109Z,20.80
2018-10-11T04:59:16.590Z,19.27
2018-10-11T05:01:45.055Z,18.53
2018-10-11T05:04:13.449Z,17.47
2018-10-11T05:06:41.893Z,18.97
2018-10-11T05:09:10.422Z,22.20
2018-10-11T05:11:39.637Z,18.57
2018-10-11T05:14:08.530Z,19.33
2018-10-11T05:16:36.990Z,22.40
2018-10-11T05:19:05.537Z,24.00
2018-10-11T05:21:34.035Z,24.00
2018-10-11T05:24:02.449Z,22.43
2018-10-11T05:26:30.856Z,20.90
2018-10-11T05:28:59.288Z,22.17
2018-10-11T05:31:28.688Z,20.73
2018-10-11T05:33:57.139Z,18.57
2018-10-11T05:36:25.558Z,20.03
2018-10-11T05:38:53.933Z,20.87
2018-10-11T05:41:22.383Z,21.67
2018-10-11T05:43:50.800Z,18.50
2018-10-11T05:46:27.570Z,19.87
2018-10-11T05:48:56.922Z,18.10
2018-10-11T05:51:25.461Z,21.77
2018-10-11T05:53:55.752Z,23.73
2018-10-11T05:56:25.286Z,21.70
2018-10-11T05:58:53.799Z,20.00
2018-10-11T06:01:22.454Z,21.87
2018-10-11T06:03:50.901Z,19.73
2018-10-11T06:06:19.381Z,21.27
2018-10-11T06:08:47.825Z,20.00
2018-10-11T06:11:16.346Z,19.73
2018-10-11T06:13:45.712Z,18.77
2018-10-11T06:16:14.306Z,19.63
2018-10-11T06:18:42.957Z,18.57
2018-10-11T06:21:11.561Z,18.37
2018-10-11T06:23:40.098Z,21.17
2018-10-11T06:26:08.527Z,18.13
2018-10-11T06:28:37.010Z,18.67
2018-10-11T06:31:05.510Z,19.40
2018-10-11T06:33:33.933Z,19.67
2018-10-11T06:36:02.593Z,19.53
2018-10-11T06:38:31.141Z,19.80
2018-10-11T06:40:59.705Z,17.03
2018-10-11T06:43:28.245Z,19.47
2018-10-11T06:45:56.726Z,18.20
2018-10-11T06:48:25.184Z,20.47
2018-10-11T06:50:53.644Z,18.70
2018-10-11T06:53:22.087Z,20.17
2018-10-11T06:55:50.499Z,18.57
2018-10-11T06:58:18.978Z,19.73
2018-10-11T07:00:47.405Z,21.40
2018-10-11T07:03:15.890Z,19.83
2018-10-11T07:05:44.257Z,18.00
2018-10-11T07:08:12.670Z,16.63
2018-10-11T07:10:41.070Z,18.20
2018-10-11T07:13:09.855Z,20.10
2018-10-11T07:15:38.241Z,18.63
2018-10-11T07:18:06.678Z,18.60
2018-10-11T07:20:35.117Z,18.30
2018-10-11T07:23:03.523Z,18.87
2018-10-11T07:25:31.941Z,16.10
2018-10-11T07:28:00.437Z,21.00
2018-10-11T07:30:28.838Z,16.60
2018-10-11T07:32:57.281Z,15.87
2018-10-11T07:35:25.799Z,18.07
2018-10-11T07:37:54.125Z,15.37
2018-10-11T07:40:22.530Z,20.27
2018-10-11T07:42:50.927Z,16.70
2018-10-11T07:45:19.329Z,17.07
2018-10-11T07:47:47.766Z,16.37
2018-10-11T07:50:16.168Z,17.53
2018-10-11T07:52:44.584Z,15.43
2018-10-11T07:55:13.005Z,15.67
2018-10-11T07:57:41.393Z,16.07
2018-10-11T08:00:12.015Z,16.60
2018-10-11T08:02:42.689Z,15.50
2018-10-11T08:05:11.271Z,16.90
2018-10-11T08:07:39.843Z,16.40
2018-10-11T08:10:08.621Z,14.23
2018-10-11T08:12:37.021Z,14.90
2018-10-11T08:15:05.713Z,13.50
2018-10-11T08:17:34.496Z,14.07
2018-10-11T08:20:02.670Z,14.77
2018-10-11T08:22:30.988Z,14.73
2018-10-11T08:24:59.615Z,14.23
2018-10-11T08:27:27.977Z,14.53
2018-10-11T08:29:56.397Z,13.40
2018-10-11T08:32:24.951Z,14.70
2018-10-11T08:34:53.273Z,15.07
2018-10-11T08:37:21.944Z,13.80
2018-10-11T08:39:50.351Z,15.10
2018-10-11T08:42:18.773Z,13.03
2018-10-11T08:44:47.179Z,13.63
2018-10-11T08:47:15.574Z,14.27
2018-10-11T08:49:43.978Z,13.63
2018-10-11T08:52:12.389Z,14.17
2018-10-11T08:54:47.690Z,14.73
2018-10-11T08:57:16.337Z,13.43
2018-10-11T08:59:45.145Z,13.17
2018-10-11T09:02:13.685Z,13.83
2018-10-11T09:04:42.098Z,12.70
2018-10-11T09:07:10.528Z,12.93
2018-10-11T09:09:39.013Z,12.40
2018-10-11T09:12:07.441Z,12.43
2018-10-11T09:14:36.030Z,14.37
2018-10-11T09:17:04.521Z,15.63
2018-10-11T09:19:32.941Z,15.03
2018-10-11T09:22:01.875Z,12.20
2018-10-11T09:24:30.394Z,13.30
2018-10-11T09:26:59.061Z,12.13
2018-10-11T09:29:27.453Z,13.33
2018-10-11T09:31:55.830Z,12.40
2018-10-11T09:34:24.232Z,11.23
2018-10-11T09:36:52.615Z,11.73
2018-10-11T09:39:21.014Z,12.07
2018-10-11T09:41:49.413Z,11.87
2018-10-11T09:44:17.822Z,11.33
2018-10-11T09:46:46.225Z,11.20
2018-10-11T09:49:14.647Z,10.13
2018-10-11T09:51:43.170Z,10.70
2018-10-11T09:54:11.572Z,10.47
2018-10-11T09:57:14.940Z,10.37
2018-10-11T09:59:43.341Z,10.37
2018-10-11T10:02:12.617Z,11.53
2018-10-11T10:04:49.546Z,10.10
2018-10-11T10:07:17.961Z,11.37
2018-10-11T10:09:46.990Z,9.10
2018-10-11T10:12:15.954Z,10.80
2018-10-11T10:14:45.187Z,9.40
2018-10-11T10:17:13.598Z,8.60
2018-10-11T10:19:42.603Z,10.77
2018-10-11T10:22:10.996Z,8.80
2018-10-11T10:24:39.966Z,8.27
2018-10-11T10:27:08.528Z,9.33
2018-10-11T10:29:36.993Z,8.20
2018-10-11T10:32:05.791Z,9.60
2018-10-11T10:34:34.209Z,9.20
2018-10-11T10:37:02.624Z,9.20
2018-10-11T10:39:31.085Z,9.57
2018-10-11T10:41:59.477Z,8.67
2018-10-11T10:44:27.870Z,9.17
2018-10-11T10:46:56.318Z,7.47
2018-10-11T10:49:24.749Z,8.53
2018-10-11T10:51:53.121Z,8.37
2018-10-11T10:54:27.425Z,8.80
2018-10-11T10:56:56.209Z,7.83
2018-10-11T10:59:24.713Z,8.20
2018-10-11T11:01:53.381Z,9.47
2018-10-11T11:04:21.829Z,10.67
2018-10-11T11:06:50.302Z,10.97
2018-10-11T11:09:18.725Z,10.87
2018-10-11T11:11:47.102Z,8.90
2018-10-11T11:14:16.424Z,9.67
2018-10-11T11:16:45.435Z,9.53
2018-10-11T11:19:14.445Z,9.70
2018-10-11T11:21:42.921Z,9.13
2018-10-11T11:24:11.325Z,8.93
2018-10-11T11:26:39.773Z,9.07
2018-10-11T11:29:08.233Z,9.50
2018-10-11T11:31:36.634Z,11.63
2018-10-11T11:34:05.082Z,9.73
2018-10-11T11:36:33.495Z,9.20
2018-10-11T11:39:01.914Z,9.50
2018-10-11T11:41:30.391Z,9.00
2018-10-11T11:43:58.801Z,10.10
2018-10-11T11:46:27.215Z,9.27
2018-10-11T11:48:55.630Z,10.97
2018-10-11T11:51:24.015Z,9.87
2018-10-11T11:53:52.434Z,10.17
2018-10-11T11:56:20.818Z,10.33
2018-10-11T11:58:49.317Z,8.57
2018-10-11T12:01:17.783Z,8.87
2018-10-11T12:03:46.220Z,10.07
2018-10-11T12:06:14.622Z,9.73
2018-10-11T12:08:43.097Z,12.87
2018-10-11T12:11:11.503Z,9.70
2018-10-11T12:13:39.951Z,11.27
2018-10-11T12:16:08.358Z,10.57
2018-10-11T12:18:36.778Z,10.30
2018-10-11T12:21:05.195Z,10.33
2018-10-11T12:23:33.826Z,10.30
2018-10-11T12:26:02.245Z,10.97
2018-10-11T12:28:30.682Z,11.23
2018-10-11T12:30:59.086Z,12.23
2018-10-11T12:33:27.481Z,10.30
2018-10-11T12:35:55.905Z,11.60
2018-10-11T12:38:24.374Z,10.20
2018-10-11T12:40:52.816Z,11.57
2018-10-11T12:43:21.230Z,11.57
2018-10-11T12:45:49.660Z,10.30
2018-10-11T12:48:18.057Z,10.53
2018-10-11T12:50:46.493Z,10.80
2018-10-11T12:53:14.899Z,10.47
2018-10-11T12:55:43.381Z,12.07
2018-10-11T12:58:11.780Z,10.23
2018-10-11T13:00:40.234Z,11.35
2018-10-11T13:03:09.014Z,11.90
2018-10-11T13:05:37.460Z,10.23
2018-10-11T13:08:05.846Z,9.90
2018-10-11T13:10:34.271Z,10.27
2018-10-11T13:13:04.537Z,13.03
2018-10-11T13:15:31.220Z,11.47
2018-10-11T13:17:59.628Z,12.47
2018-10-11T13:20:28.185Z,9.67
2018-10-11T13:22:56.647Z,10.17
2018-10-11T13:25:25.306Z,9.97
2018-10-11T13:27:53.685Z,10.87
2018-10-11T13:30:22.472Z,10.83
2018-10-11T13:32:51.116Z,13.77
2018-10-11T13:35:19.566Z,12.27
2018-10-11T13:37:47.955Z,9.43
2018-10-11T13:40:16.627Z,9.37
2018-10-11T13:42:45.028Z,9.83
2018-10-11T13:45:13.466Z,10.87
2018-10-11T13:47:45.460Z,10.37
2018-10-11T13:50:11.241Z,9.07
2018-10-11T13:52:39.887Z,10.70
2018-10-11T13:55:13.054Z,11.20
2018-10-11T13:57:38.237Z,9.60
2018-10-11T14:00:08.179Z,9.17
2018-10-11T14:02:36.754Z,10.20
2018-10-11T14:05:05.497Z,10.93
2018-10-11T14:07:35.076Z,11.90
2018-10-11T14:10:03.650Z,9.17
2018-10-11T14:12:32.174Z,10.83
2018-10-11T14:15:00.687Z,10.40
2018-10-11T14:17:29.417Z,10.33
2018-10-11T14:19:57.858Z,10.23
2018-10-11T14:22:26.297Z,9.73
2018-10-11T14:24:55.209Z,13.50
2018-10-11T14:27:23.611Z,9.80
2018-10-11T14:29:52.129Z,9.70
2018-10-11T14:32:20.510Z,9.17
2018-10-11T14:34:48.956Z,12.40
2018-10-11T14:37:17.437Z,11.50
2018-10-11T14:39:45.792Z,9.97
2018-10-11T14:42:14.284Z,10.53
2018-10-11T14:44:42.728Z,10.23
2018-10-11T14:47:11.157Z,10.67
2018-10-11T14:49:39.623Z,11.57
2018-10-11T14:52:12.734Z,10.13
2018-10-11T14:54:41.537Z,12.80
2018-10-11T14:57:10.922Z,9.43
2018-10-11T14:59:40.192Z,9.90
2018-10-11T15:02:10.809Z,9.83
2018-10-11T15:04:39.488Z,11.43
2018-10-11T15:07:08.497Z,12.63
2018-10-11T15:09:37.203Z,11.87
2018-10-11T15:12:05.963Z,10.83
2018-10-11T15:14:34.561Z,11.40
2018-10-11T15:17:03.738Z,10.37
2018-10-11T15:19:32.602Z,10.87
2018-10-11T15:22:01.507Z,7.50
2018-10-11T15:24:30.243Z,8.80
2018-10-11T15:26:59.406Z,8.80
2018-10-11T15:29:28.298Z,7.97
2018-10-11T15:31:57.012Z,8.30
2018-10-11T15:34:25.738Z,11.30
2018-10-11T15:39:31.481Z,9.65
2018-10-11T15:42:00.334Z,8.20
2018-10-11T15:44:28.841Z,11.43
2018-10-11T15:46:57.370Z,9.20
2018-10-11T15:49:25.853Z,6.50
2018-10-11T15:51:54.774Z,7.53
2018-10-11T15:54:23.390Z,8.30
2018-10-11T15:56:51.808Z,8.70
2018-10-11T15:59:30.473Z,8.88
2018-10-11T16:01:58.948Z,6.80
2018-10-11T16:04:27.674Z,8.43
2018-10-11T16:06:56.137Z,8.87
2018-10-11T16:09:24.691Z,9.27
2018-10-11T16:11:53.334Z,8.20
2018-10-11T16:14:28.477Z,7.80
2018-10-11T16:16:57.177Z,9.33
2018-10-11T16:19:25.606Z,8.60
2018-10-11T16:21:53.982Z,9.17
2018-10-11T16:24:22.422Z,8.67
2018-10-11T16:26:50.859Z,7.50
2018-10-11T16:29:19.374Z,8.80
2018-10-11T16:31:47.769Z,10.67
2018-10-11T16:34:16.165Z,9.23
2018-10-11T16:36:45.213Z,8.90
2018-10-11T16:39:13.823Z,7.90
2018-10-11T16:41:42.197Z,9.50
2018-10-11T16:44:10.600Z,8.13
2018-10-11T16:46:39.109Z,10.03
2018-10-11T16:49:07.547Z,8.50
2018-10-11T16:51:36.005Z,8.93
2018-10-11T16:54:04.378Z,9.07
2018-10-11T16:56:32.825Z,8.33
2018-10-11T16:59:01.206Z,10.67
2018-10-11T17:01:29.634Z,8.33
2018-10-11T17:03:58.025Z,8.63
2018-10-11T17:06:26.433Z,9.20
2018-10-11T17:08:54.821Z,10.37
2018-10-11T17:11:23.191Z,9.20
2018-10-11T17:13:51.618Z,9.13
2018-10-11T17:16:20.046Z,8.97
2018-10-11T17:18:48.534Z,11.70
2018-10-11T17:21:16.944Z,8.87
2018-10-11T17:23:45.363Z,9.53
2018-10-11T17:26:13.845Z,9.83
2018-10-11T17:28:42.248Z,9.13
2018-10-11T17:31:10.722Z,9.93
2018-10-11T17:33:39.195Z,10.37
2018-10-11T17:36:07.742Z,10.03
2018-10-11T17:38:36.489Z,8.40
2018-10-11T17:41:04.902Z,9.00
2018-10-11T17:43:33.298Z,10.33
2018-10-11T17:46:01.713Z,9.97
2018-10-11T17:48:30.098Z,9.00
2018-10-11T17:50:58.514Z,9.33
2018-10-11T17:53:27.100Z,9.60
2018-10-11T17:55:55.513Z,9.87
2018-10-11T17:58:23.957Z,10.53
2018-10-11T18:00:52.345Z,12.00
2018-10-11T18:03:20.797Z,9.60
2018-10-11T18:05:49.350Z,10.67
2018-10-11T18:08:17.779Z,10.30
2018-10-11T18:10:46.163Z,11.13
2018-10-11T18:13:14.591Z,10.33
2018-10-11T18:15:44.654Z,10.23
2018-10-11T18:18:13.298Z,10.00
2018-10-11T18:20:41.771Z,12.27
2018-10-11T18:23:10.226Z,13.90
2018-10-11T18:25:38.601Z,11.43
2018-10-11T18:28:08.534Z,11.07
2018-10-11T18:30:37.013Z,11.37
2018-10-11T18:33:05.673Z,13.83
2018-10-11T18:35:34.065Z,11.60
2018-10-11T18:38:02.494Z,10.00
2018-10-11T18:40:30.882Z,11.27
2018-10-11T18:42:59.299Z,10.20
2018-10-11T18:45:27.743Z,9.50
2018-10-11T18:47:56.157Z,9.90
2018-10-11T18:50:24.895Z,10.60
2018-10-11T18:52:53.277Z,10.77
2018-10-11T18:55:22.363Z,10.43
2018-10-11T18:57:50.868Z,10.67
2018-10-11T19:00:19.326Z,10.30
2018-10-11T19:02:47.744Z,9.43
2018-10-11T19:05:16.145Z,9.60
2018-10-11T19:07:44.566Z,10.40
2018-10-11T19:10:12.974Z,9.87
2018-10-11T19:12:41.422Z,10.27
2018-10-11T19:15:09.931Z,9.77
2018-10-11T19:17:38.336Z,10.67
2018-10-11T19:20:06.801Z,12.67
2018-10-11T19:22:35.210Z,11.03
2018-10-11T19:25:03.670Z,11.47
2018-10-11T19:27:32.173Z,12.50
2018-10-11T19:30:00.575Z,11.20
2018-10-11T19:32:29.737Z,14.07
2018-10-11T19:34:58.129Z,12.77
2018-10-11T19:37:26.569Z,11.10
2018-10-11T19:39:54.993Z,13.73
2018-10-11T19:42:23.469Z,11.50
2018-10-11T19:44:52.396Z,11.10
2018-10-11T19:47:20.854Z,11.00
2018-10-11T19:49:49.305Z,11.47
2018-10-11T19:52:17.725Z,11.90
2018-10-11T19:54:46.150Z,12.47
2018-10-11T19:57:14.570Z,12.37
2018-10-11T19:59:43.001Z,11.63
2018-10-11T20:02:11.498Z,11.53
2018-10-11T20:04:39.884Z,11.80
2018-10-11T20:07:08.320Z,12.10
2018-10-11T20:09:36.907Z,11.80
2018-10-11T20:12:05.522Z,12.90
2018-10-11T20:14:34.178Z,13.03
2018-10-11T20:17:02.648Z,11.90
2018-10-11T20:19:31.086Z,12.00
2018-10-11T20:21:59.701Z,11.80
2018-10-11T20:24:28.209Z,11.93
2018-10-11T20:26:56.962Z,12.10
2018-10-11T20:29:25.422Z,15.40
2018-10-11T20:31:53.777Z,12.33
2018-10-11T20:34:22.164Z,13.83
2018-10-11T20:36:50.618Z,12.47
2018-10-11T20:39:19.095Z,13.73
2018-10-11T20:41:47.524Z,12.80
2018-10-11T20:44:15.917Z,11.73
2018-10-11T20:46:44.325Z,12.50
2018-10-11T20:49:12.831Z,14.43
2018-10-11T20:51:41.371Z,14.00
2018-10-11T20:54:09.713Z,13.53
2018-10-11T20:56:38.078Z,13.70
2018-10-11T20:59:07.023Z,12.47
2018-10-11T21:01:35.404Z,11.97
2018-10-11T21:04:03.841Z,12.93
2018-10-11T21:06:32.236Z,14.10
2018-10-11T21:09:00.754Z,13.47
2018-10-11T21:11:35.718Z,14.13
2018-10-11T21:14:04.158Z,12.77
2018-10-11T21:16:32.598Z,12.53
2018-10-11T21:19:01.041Z,12.43
2018-10-11T21:21:29.866Z,13.47
2018-10-11T21:23:58.434Z,14.47
2018-10-11T21:26:26.879Z,13.90
2018-10-11T21:28:55.263Z,14.60
2018-10-11T21:31:23.661Z,14.73
2018-10-11T21:33:52.085Z,14.73
2018-10-11T21:36:20.482Z,14.43
2018-10-11T21:38:48.941Z,16.77
2018-10-11T21:41:17.310Z,13.50
2018-10-11T21:43:45.724Z,16.17
2018-10-11T21:46:14.202Z,14.97
2018-10-11T21:48:42.612Z,15.83
2018-10-11T21:51:11.059Z,15.83
2018-10-11T21:53:39.507Z,15.90
2018-10-11T21:56:07.877Z,16.83
2018-10-11T21:58:36.265Z,20.23
2018-10-11T22:01:09.993Z,15.93
2018-10-11T22:03:38.402Z,15.43
2018-10-11T22:06:06.820Z,16.77
2018-10-11T22:08:35.391Z,16.33
2018-10-11T22:11:03.694Z,14.93
2018-10-11T22:13:32.095Z,14.93
2018-10-11T22:16:00.573Z,14.30
2018-10-11T22:18:29.156Z,15.57
2018-10-11T22:20:58.117Z,15.67
2018-10-11T22:23:26.755Z,14.30
2018-10-11T22:25:55.264Z,14.10
2018-10-11T22:28:30.193Z,16.93
2018-10-11T22:30:58.861Z,15.07
2018-10-11T22:33:27.562Z,16.20
2018-10-11T22:35:56.084Z,16.13
2018-10-11T22:38:24.488Z,16.00
2018-10-11T22:40:53.017Z,15.90
2018-10-11T22:43:21.429Z,16.17
2018-10-11T22:45:49.906Z,15.33
2018-10-11T22:48:18.330Z,15.00
2018-10-11T22:50:46.781Z,17.90
2018-10-11T22:53:15.210Z,14.43
2018-10-11T22:55:43.630Z,14.37
2018-10-11T22:58:12.046Z,14.50
2018-10-11T23:00:40.481Z,14.50
2018-10-11T23:03:09.140Z,14.47
2018-10-11T23:05:37.582Z,15.27
2018-10-11T23:08:05.982Z,14.53
2018-10-11T23:10:34.505Z,13.40
2018-10-11T23:13:02.921Z,13.80
2018-10-11T23:15:31.355Z,17.37
2018-10-11T23:17:59.805Z,14.07
2018-10-11T23:20:28.213Z,14.87
2018-10-11T23:22:56.648Z,14.73
2018-10-11T23:25:25.074Z,15.43
2018-10-11T23:27:53.551Z,13.37
2018-10-11T23:30:21.986Z,12.63
2018-10-11T23:32:50.367Z,14.40
2018-10-11T23:35:18.757Z,11.97
2018-10-11T23:37:47.144Z,10.73
2018-10-11T23:40:15.541Z,12.80
2018-10-11T23:42:43.930Z,12.70
2018-10-11T23:45:13.130Z,11.83
2018-10-11T23:47:42.316Z,12.30
2018-10-11T23:50:10.768Z,10.93
2018-10-11T23:52:39.242Z,11.47
2018-10-11T23:55:07.974Z,11.83
2018-10-11T23:57:36.544Z,12.03
